Frame Switch, Texas
Current Conditions -  °F | °C
As of 7:58 AM on Monday 22 Dec 2014 (Local Time) from KGRK Reporting Station
Clear Clear  
Wind Chill: 55°   Ceiling: Unl
Heat Index: 55°   Visibility: 9mi
Dew Point: 53°   Wind: 10mph
Humidity: 93%   Direction: 220°SW
Pressure: 29.68"   Gusts: NA
Location:  30.5793°N, 97.5096°W
Report Text: KGRK 221358Z AUTO 22009KT 9SM CLR 13/11 A2968 RMK AO2 SLP048 T01250114
Loading
Personal Weather Stations






























Interactive Weather Map New forecast layout! Learn more

10-Day Weather Forecast

Advertisements
Track Severe Weather on mobile